Latest Weather Observations for Ben Nevis

IDV60801

Issued at 6:32 pm EST Wednesday 24 April 2019 (issued every 10 minutes, with the page automatically refreshed every 10 minutes)

About weather observations | Map of weather stations | Latest weather observations for VIC | Other Formats
Station Details ID: 079101 Name: BEN NEVIS Lat: -37.23 Lon: 143.20 Height: 875.0 m
Data from the previous 72 hours. | See also: Recent months at Ben Nevis
Date/Time
EST
Temp
°C
App
Temp
°C
Dew
Point
°C
Rel
Hum
%
Delta-T
°C
Wind Press
QNH
hPa
Press
MSL
hPa
Rain since
9am
mm
Dir  Spd
km/h
Gust
km/h
Spd
kts
Gust
kts
24/06:30pm 11.0 7.6 7.5 79 1.8 SSW 15 28 8 15 - - 0.0
24/06:00pm 11.7 7.3 7.4 75 2.2 SSW 20 30 11 16 - - 0.0
24/05:30pm 12.8 7.2 7.3 69 2.8 SSW 26 35 14 19 - - 0.0
24/05:00pm 13.6 6.8 6.9 64 3.4 SSW 32 43 17 23 - - 0.0
24/04:30pm 14.5 8.4 6.6 59 4.0 SSW 28 46 15 25 - - 0.0
24/04:25pm 14.5 8.4 6.6 59 4.0 SSW 28 46 15 25 - - 0.0
24/04:00pm 15.4 9.9 5.9 53 4.8 SSW 24 35 13 19 - - 0.0
24/03:30pm 17.4 13.5 6.9 50 5.5 WSW 17 30 9 16 - - 0.0
24/03:00pm 20.0 17.1 8.0 46 6.5 W 13 24 7 13 - - 0.0
24/02:30pm 19.7 17.0 7.4 45 6.6 W 11 20 6 11 - - 0.0
24/02:00pm 20.1 18.0 8.4 47 6.4 WNW 9 26 5 14 - - 0.0
24/01:30pm 20.2 18.0 7.9 45 6.6 WNW 9 19 5 10 - - 0.0
24/01:00pm 19.4 17.3 8.4 49 6.0 WNW 9 15 5 8 - - 0.0
24/12:30pm 18.9 16.0 8.0 49 5.9 W 13 19 7 10 - - 0.0
24/12:00pm 18.5 15.9 7.9 50 5.7 W 11 20 6 11 - - 0.0
24/11:30am 18.0 15.5 8.3 53 5.2 W 11 20 6 11 - - 0.0
24/11:00am 18.0 15.3 9.1 56 4.9 W 13 17 7 9 - - 0.0
24/10:30am 17.5 15.6 9.2 58 4.5 NNW 9 13 5 7 - - 0.0
24/10:00am 16.9 15.5 9.6 62 4.0 N 7 13 4 7 - - 0.0
24/09:30am 14.9 13.3 8.6 66 3.3 N 7 11 4 6 - - 0.0
24/09:00am 14.8 12.6 9.2 69 3.0 W 11 17 6 9 - - 0.0
24/08:30am 14.1 11.4 8.9 71 2.8 WSW 13 15 7 8 - - 0.0
24/08:00am 13.1 10.0 8.8 75 2.3 WSW 15 20 8 11 - - 0.0
24/07:30am 13.0 10.9 9.8 81 1.7 WSW 11 17 6 9 - - 0.0
24/07:00am 13.2 11.3 10.4 83 1.5 WSW 11 17 6 9 - - 0.0
24/06:30am 13.2 10.7 9.6 79 1.9 WSW 13 15 7 8 - - 0.0
24/06:00am 13.5 11.8 9.7 78 2.0 W 9 15 5 8 - - 0.0
24/05:30am 13.5 11.7 9.6 77 2.1 W 9 13 5 7 - - 0.0
24/05:00am 13.3 12.2 9.9 80 1.8 W 6 11 3 6 - - 0.0
24/04:30am 13.4 12.1 10.0 80 1.8 W 7 11 4 6 - - 0.0
24/04:00am 13.4 12.4 10.4 82 1.6 W 6 9 3 5 - - 0.0
24/03:30am 13.4 12.4 10.2 81 1.7 NNW 6 11 3 6 - - 0.0
24/03:00am 12.9 11.6 10.1 83 1.5 N 7 11 4 6 - - 0.0
24/02:30am 13.5 12.3 10.3 81 1.7 NNW 7 9 4 5 - - 0.0
24/02:00am 12.6 10.7 9.2 80 1.8 N 9 13 5 7 - - 0.0
24/01:30am 13.5 11.6 9.0 74 2.4 N 9 13 5 7 - - 0.0
24/01:00am 13.9 12.1 9.5 75 2.4 NE 9 13 5 7 - - 0.0
24/12:30am 13.1 11.1 8.8 75 2.3 ENE 9 15 5 8 - - 0.0
24/12:00am 13.2 9.8 7.6 69 2.9 NE 15 22 8 12 - - 0.0
 
Date/Time
EST
Temp
°C
App
Temp
°C
Dew
Point
°C
Rel
Hum
%
Delta-T
°C
Wind Press
QNH
hPa
Press
MSL
hPa
Rain since
9am
mm
Dir  Spd
km/h
Gust
km/h
Spd
kts
Gust
kts
23/11:30pm 12.5 8.4 6.3 66 3.1 E 17 20 9 11 - - 0.0
23/11:00pm 13.0 8.9 6.1 63 3.4 ENE 17 22 9 12 - - 0.0
23/10:30pm 13.6 9.9 6.2 61 3.7 E 15 19 8 10 - - 0.0
23/10:00pm 13.7 10.4 6.6 62 3.6 ENE 13 17 7 9 - - 0.0
23/09:30pm 13.9 11.4 6.5 61 3.7 ESE 9 11 5 6 - - 0.0
23/09:00pm 13.1 11.2 6.9 66 3.1 ENE 6 13 3 7 - - 0.0
23/08:30pm 13.6 11.5 6.7 63 3.5 ESE 7 11 4 6 - - 0.0
23/08:00pm 13.0 11.2 7.2 68 3.0 S 6 9 3 5 - - 0.0
23/07:30pm 12.7 10.8 7.4 70 2.7 NE 7 11 4 6 - - 0.0
23/07:00pm 12.2 10.0 7.7 74 2.3 S 9 15 5 8 - - 0.0
23/06:30pm 12.7 9.7 7.6 71 2.6 S 13 17 7 9 - - 0.0
23/06:00pm 13.0 9.8 7.0 67 3.0 SE 13 15 7 8 - - 0.0
23/05:30pm 13.3 9.3 6.6 64 3.4 S 17 24 9 13 - - 0.0
23/05:00pm 13.9 10.6 6.5 61 3.7 S 13 19 7 10 - - 0.0
23/04:30pm 14.7 12.6 6.8 59 4.0 SSE 7 11 4 6 - - 0.0
23/04:00pm 14.5 11.7 6.8 60 3.9 S 11 17 6 9 - - 0.0
23/03:30pm 14.3 11.4 6.4 59 4.0 S 11 17 6 9 - - 0.0
23/03:00pm 14.8 12.4 6.9 59 4.0 SSE 9 13 5 7 - - 0.0
23/02:30pm 15.0 12.6 7.1 59 4.1 S 9 15 5 8 - - 0.0
23/02:00pm 14.6 11.9 7.2 61 3.8 S 11 22 6 12 - - 0.0
23/01:30pm 15.5 13.5 7.3 58 4.3 SE 7 11 4 6 - - 0.0
23/01:00pm 18.0 16.1 7.7 51 5.5 WSW 7 13 4 7 - - 0.0
23/12:30pm 16.0 14.2 7.0 55 4.7 N 6 11 3 6 - - 0.0
23/12:00pm 15.5 13.0 3.9 46 5.6 NNE 6 7 3 4 - - 0.0
23/11:30am 14.9 12.8 3.7 47 5.4 N 4 7 2 4 - - 0.0
23/11:00am 15.1 12.5 3.0 44 5.7 NNE 6 9 3 5 - - 0.0
23/10:30am 14.6 11.9 2.5 44 5.7 NNE 6 9 3 5 - - 0.0
23/10:00am 14.8 13.3 3.0 45 5.6 CALM 0 0 0 0 - - 0.0
23/09:30am 13.7 11.3 2.3 46 5.3 ENE 4 7 2 4 - - 0.0
23/09:00am 12.9 9.6 2.2 48 4.9 E 9 15 5 8 - - 0.0
23/08:30am 13.0 9.9 0.4 42 5.6 E 6 9 3 5 - - 0.0
23/08:00am 12.6 9.2 -0.3 41 5.6 E 7 11 4 6 - - 0.0
23/07:30am 12.7 10.4 -2.7 34 6.3 CALM 0 0 0 0 - - 0.0
23/07:00am 11.7 7.9 -0.4 43 5.2 ENE 9 13 5 7 - - 0.0
23/06:30am 11.7 8.0 0.2 45 5.0 ENE 9 13 5 7 - - 0.0
23/06:00am 11.4 8.1 0.2 46 4.8 ENE 7 11 4 6 - - 0.0
23/05:30am 11.7 9.1 0.8 47 4.8 NE 4 7 2 4 - - 0.0
23/05:00am 11.2 9.4 0.9 49 4.5 CALM 0 0 0 0 - - 0.0
23/04:30am 11.7 9.9 1.4 49 4.6 CALM 0 0 0 0 - - 0.0
23/04:00am 11.6 9.8 1.3 49 4.6 CALM 0 4 0 2 - - 0.0
23/03:30am 12.1 9.4 0.5 45 5.1 NE 4 7 2 4 - - 0.0
23/03:00am 12.1 9.0 1.1 47 4.9 NE 7 9 4 5 - - 0.0
23/02:30am 10.2 5.6 3.9 65 2.9 ESE 17 20 9 11 - - 0.0
23/02:00am 10.6 6.2 2.7 58 3.6 E 15 22 8 12 - - 0.0
23/01:30am 10.9 6.4 2.2 55 3.9 E 15 22 8 12 - - 0.0
23/01:00am 11.0 6.1 2.1 54 4.0 E 17 24 9 13 - - 0.0
23/12:30am 9.6 5.1 4.4 70 2.4 ESE 17 22 9 12 - - 0.0
23/12:00am 7.6 3.9 6.2 91 0.7 SE 15 20 8 11 - - 0.0
 
Date/Time
EST
Temp
°C
App
Temp
°C
Dew
Point
°C
Rel
Hum
%
Delta-T
°C
Wind Press
QNH
hPa
Press
MSL
hPa
Rain since
9am
mm
Dir  Spd
km/h
Gust
km/h
Spd
kts
Gust
kts
22/11:30pm 7.4 3.3 6.2 92 0.6 SE 17 24 9 13 - - 0.0
22/11:00pm 7.7 3.1 5.8 88 0.9 SE 19 24 10 13 - - 0.0
22/10:30pm 7.9 3.7 5.7 86 1.0 SE 17 26 9 14 - - 0.0
22/10:00pm 7.8 3.6 5.8 87 1.0 SE 17 22 9 12 - - 0.0
22/09:30pm 7.5 3.2 5.3 86 1.0 SSE 17 24 9 13 - - 0.0
22/09:00pm 7.1 2.3 4.8 85 1.1 S 19 24 10 13 - - 0.0
22/08:30pm 8.1 3.1 4.7 79 1.6 S 20 30 11 16 - - 0.0
22/08:00pm 9.0 4.6 4.6 74 2.1 S 17 24 9 13 - - 0.0
22/07:30pm 9.1 4.7 4.5 73 2.1 S 17 28 9 15 - - 0.0
22/07:00pm 9.5 4.5 4.5 71 2.3 S 20 30 11 16 - - 0.0
22/06:30pm 9.9 4.9 4.5 69 2.5 S 20 30 11 16 - - 0.0
22/06:00pm 10.4 5.6 4.5 67 2.8 S 19 28 10 15 - - 0.0
22/05:30pm 11.1 6.3 4.6 64 3.1 S 19 26 10 14 - - 0.0
22/05:00pm 11.7 7.3 4.7 62 3.3 SSE 17 22 9 12 - - 0.0
22/04:30pm 12.6 9.0 4.8 59 3.8 SSE 13 20 7 11 - - 0.0
22/04:00pm 13.5 10.6 4.9 56 4.2 SSE 9 17 5 9 - - 0.0
22/03:30pm 14.1 11.2 4.4 52 4.7 SSE 9 17 5 9 - - 0.0
22/03:00pm 13.8 10.0 4.1 52 4.7 S 13 19 7 10 - - 0.0
22/02:30pm 13.5 9.2 5.4 58 4.0 S 17 24 9 13 - - 0.0
22/02:00pm 13.3 9.1 5.7 60 3.8 S 17 24 9 13 - - 0.0
22/01:30pm 12.5 7.8 5.9 64 3.3 S 20 33 11 18 - - 0.0
22/01:00pm 12.6 8.5 6.0 64 3.3 SSW 17 28 9 15 - - 0.0
22/12:30pm 11.7 7.0 5.3 65 3.1 S 19 30 10 16 - - 0.0
22/12:00pm 11.6 7.0 5.7 67 2.9 SSW 19 26 10 14 - - 0.0
22/11:30am 11.8 8.8 6.1 68 2.8 S 11 17 6 9 - - 0.0
22/11:00am 11.2 8.6 5.9 70 2.6 S 9 15 5 8 - - 0.0
22/10:30am 10.4 7.6 5.0 69 2.6 S 9 15 5 8 - - 0.0
22/10:00am 9.5 6.5 4.1 69 2.5 S 9 15 5 8 - - 0.0
22/09:30am 8.7 4.5 3.7 71 2.3 S 15 20 8 11 - - 0.0
22/09:00am 8.4 4.6 4.0 74 2.0 S 13 19 7 10 - - 0.0
22/08:30am 7.6 3.0 3.6 76 1.8 S 17 24 9 13 - - 0.0
22/08:00am 6.8 2.9 3.4 79 1.5 SSE 13 15 7 8 - - 0.0
22/07:30am 7.0 3.1 3.4 78 1.6 SSE 13 17 7 9 - - 0.0
22/07:00am 6.5 2.2 3.1 79 1.5 S 15 20 8 11 - - 0.0
22/06:30am 6.7 2.7 2.8 76 1.7 SSE 13 17 7 9 - - 0.0
22/06:00am 6.9 2.5 2.6 74 1.9 S 15 20 8 11 - - 0.0
22/05:30am 6.9 2.2 3.0 76 1.7 S 17 24 9 13 - - 0.0
22/05:00am 6.7 2.4 3.3 79 1.5 S 15 24 8 13 - - 0.0
22/04:30am 6.7 2.3 4.5 86 1.0 S 17 26 9 14 - - 0.0
22/04:00am 6.8 2.2 3.9 82 1.3 S 17 24 9 13 - - 0.0
22/03:30am 7.4 1.9 4.0 79 1.5 SSW 22 32 12 17 - - 0.0
22/03:00am 7.0 2.6 4.7 85 1.1 SSW 17 24 9 13 - - 0.0
22/02:30am 7.7 1.3 3.2 73 2.0 SSW 26 33 14 18 - - 0.0
22/02:00am 8.5 2.6 3.8 72 2.1 SSW 24 33 13 18 - - 0.0
22/01:30am 8.0 1.5 4.8 80 1.5 SSW 28 39 15 21 - - 0.0
22/01:00am 7.7 0.9 5.0 83 1.3 SSW 30 43 16 23 - - 0.0
22/12:30am 7.8 1.2 5.9 88 0.9 SSW 30 44 16 24 - - 0.0
22/12:00am 7.9 2.1 6.2 89 0.8 SSW 26 35 14 19 - - 0.0
 
Date/Time
EST
Temp
°C
App
Temp
°C
Dew
Point
°C
Rel
Hum
%
Delta-T
°C
Wind Press
QNH
hPa
Press
MSL
hPa
Rain since
9am
mm
Dir  Spd
km/h
Gust
km/h
Spd
kts
Gust
kts
21/11:30pm 8.2 2.4 6.3 88 0.9 SSW 26 39 14 21 - - 0.0
21/11:09pm 8.0 1.9 6.8 92 0.6 SSW 28 46 15 25 - - 0.0
21/11:00pm 7.9 1.5 6.8 93 0.5 SSW 30 46 16 25 - - 0.0
21/10:30pm 7.9 2.4 7.6 98 0.1 SSW 26 37 14 20 - - 0.0
21/10:00pm 8.0 1.8 7.7 98 0.1 SSW 30 44 16 24 - - 0.0
21/09:30pm 8.6 3.2 8.2 97 0.2 SSW 26 37 14 20 - - 0.0
21/09:00pm 9.8 5.5 9.3 97 0.3 SSW 22 35 12 19 - - 0.0
21/08:30pm 10.2 5.2 9.7 97 0.3 SSW 26 35 14 19 - - 0.0
21/08:00pm 10.4 5.9 9.9 97 0.3 SSW 24 32 13 17 - - 0.0
21/07:30pm 10.7 6.6 10.1 96 0.3 SSW 22 32 12 17 - - 0.0
21/07:00pm 11.3 8.2 10.4 94 0.5 SSW 17 26 9 14 - - 0.0

Other formats

Comma delimited format used in spreadsheet applications
http://www.bom.gov.au/fwo/IDV60801/IDV60801.94835.axf

JavaScript Object Notation format (JSON) in row-major order
http://www.bom.gov.au/fwo/IDV60801/IDV60801.94835.json

Data quality

Most of these data are generated automatically and are frequently updated. Quality checks on data are not normally performed. It is possible for incorrect values to appear. Refer to information at About Latest Weather Observations and please check the disclaimer before using these data.